Time;durP1;ratioP1;P1;durP2;ratioP2;P2;SDS_P1;SDS_P2;PMS_P1;PMS_P2;Temp;Humidity;BMP_temperature;BMP_pressure;BME280_temperature;BME280_humidity;BME280_pressure;Samples;Min_cycle;Max_cycle;Signal;HPM_P1;HPM_P2
2021/12/12 00:00:49;;;;;;;17.85;3.30;;;12.40;99.90;;;;;;5061891;28;20054;-74
2021/12/12 00:03:31;;;;;;;16.08;2.30;;;12.40;99.90;;;;;;5062038;28;20318;-75
2021/12/12 00:05:57;;;;;;;18.70;3.25;;;12.40;99.90;;;;;;5062220;28;20067;-71
2021/12/12 00:08:25;;;;;;;17.10;2.67;;;12.40;99.90;;;;;;5061781;28;20029;-74
2021/12/12 00:11:05;;;;;;;15.00;2.80;;;12.30;99.90;;;;;;5061913;28;20028;-74
2021/12/12 00:13:41;;;;;;;14.13;2.88;;;12.30;99.90;;;;;;5062718;28;20362;-73
2021/12/12 00:16:07;;;;;;;21.88;3.10;;;12.30;99.90;;;;;;5062917;28;20028;-73
2021/12/12 00:18:34;;;;;;;9.73;2.65;;;12.30;99.90;;;;;;5066891;28;20056;-74
2021/12/12 00:21:00;;;;;;;13.23;2.60;;;12.30;99.90;;;;;;5065149;28;20036;-73
2021/12/12 00:23:25;;;;;;;11.55;2.70;;;12.30;99.90;;;;;;5066270;28;20038;-74
2021/12/12 00:25:53;;;;;;;10.73;2.35;;;12.30;99.90;;;;;;5065632;28;20089;-73
2021/12/12 00:28:21;;;;;;;8.45;2.67;;;12.30;99.90;;;;;;5065799;28;20385;-74
2021/12/12 00:30:52;;;;;;;9.50;2.33;;;12.30;99.90;;;;;;5066590;28;20025;-74
2021/12/12 00:33:19;;;;;;;7.65;2.13;;;12.30;99.90;;;;;;5066275;28;20059;-73
2021/12/12 00:35:45;;;;;;;8.43;2.28;;;12.30;99.90;;;;;;5065380;28;20369;-73
2021/12/12 00:38:20;;;;;;;7.82;2.30;;;12.30;99.90;;;;;;5066307;28;20275;-73
2021/12/12 00:40:50;;;;;;;10.88;2.20;;;12.30;99.90;;;;;;5048712;28;20051;-73
2021/12/12 00:43:29;;;;;;;8.98;2.40;;;12.20;99.90;;;;;;5065152;28;20076;-72
2021/12/12 00:45:58;;;;;;;11.98;2.53;;;12.30;99.90;;;;;;5065503;28;20021;-74
2021/12/12 00:48:26;;;;;;;7.97;2.13;;;12.20;99.90;;;;;;5066123;28;20032;-73
2021/12/12 00:50:52;;;;;;;6.97;2.35;;;12.20;99.90;;;;;;5065483;28;20024;-73
2021/12/12 00:53:20;;;;;;;9.52;2.55;;;12.20;99.90;;;;;;5065539;28;20029;-74
2021/12/12 00:55:48;;;;;;;8.02;2.60;;;12.20;99.90;;;;;;5065390;28;20231;-74
2021/12/12 00:58:16;;;;;;;8.70;2.30;;;12.20;99.90;;;;;;5066009;28;20044;-73
2021/12/12 01:00:49;;;;;;;12.10;2.78;;;12.20;99.90;;;;;;5065249;28;20017;-74
2021/12/12 01:03:16;;;;;;;7.25;3.45;;;12.10;99.90;;;;;;5065865;28;20025;-73
2021/12/12 01:05:46;;;;;;;8.93;2.67;;;12.10;99.90;;;;;;5048509;28;20021;-74
2021/12/12 01:08:14;;;;;;;11.93;2.60;;;12.20;99.90;;;;;;5066204;28;20029;-74
2021/12/12 01:10:47;;;;;;;6.32;2.25;;;12.20;99.90;;;;;;5064677;28;20303;-73
2021/12/12 01:13:14;;;;;;;9.57;2.50;;;12.10;99.90;;;;;;5065631;28;20100;-73
2021/12/12 01:15:45;;;;;;;6.60;2.25;;;12.10;99.90;;;;;;5065977;28;20029;-73
2021/12/12 01:18:16;;;;;;;5.97;2.28;;;12.10;99.90;;;;;;5065644;28;20024;-73
2021/12/12 01:21:11;;;;;;;6.60;2.13;;;12.10;99.90;;;;;;5064110;28;20075;-74
2021/12/12 01:23:58;;;;;;;7.85;2.47;;;12.10;99.90;;;;;;5063783;28;20278;-74
2021/12/12 01:26:28;;;;;;;7.45;2.78;;;12.10;99.90;;;;;;5065173;28;20028;-73
2021/12/12 01:28:55;;;;;;;6.07;2.33;;;12.10;99.90;;;;;;5064520;28;20033;-73
2021/12/12 01:31:26;;;;;;;9.10;2.13;;;12.10;99.90;;;;;;5064696;28;20021;-73
2021/12/12 01:33:59;;;;;;;6.67;2.27;;;12.20;99.90;;;;;;5065045;28;20028;-73
2021/12/12 01:36:42;;;;;;;7.07;1.70;;;12.10;99.90;;;;;;5064691;28;20039;-73
2021/12/12 01:39:10;;;;;;;4.20;2.20;;;12.20;99.90;;;;;;5063972;28;20060;-73
2021/12/12 01:41:58;;;;;;;7.32;2.25;;;12.20;99.90;;;;;;5065239;28;20025;-74
2021/12/12 01:44:40;;;;;;;4.75;2.25;;;12.20;99.90;;;;;;5050975;28;20365;-73
2021/12/12 01:47:24;;;;;;;6.70;2.17;;;12.20;99.90;;;;;;5064399;28;20082;-74
2021/12/12 01:49:55;;;;;;;6.03;1.50;;;12.30;99.90;;;;;;5063779;28;20032;-73
2021/12/12 01:52:24;;;;;;;4.72;1.50;;;12.20;99.90;;;;;;5063902;28;20219;-73
2021/12/12 01:54:54;;;;;;;4.53;1.75;;;12.30;99.90;;;;;;5063829;28;20066;-73
2021/12/12 01:57:26;;;;;;;3.25;1.60;;;12.30;99.90;;;;;;5065319;28;20016;-74
2021/12/12 01:59:53;;;;;;;3.08;1.40;;;12.30;99.90;;;;;;5063786;28;20020;-74
2021/12/12 02:02:23;;;;;;;2.38;1.20;;;12.30;99.90;;;;;;5064609;28;20109;-74
2021/12/12 02:04:53;;;;;;;4.03;1.40;;;12.30;99.90;;;;;;5064041;28;20051;-73
2021/12/12 02:07:24;;;;;;;2.95;1.50;;;12.30;99.90;;;;;;5065015;28;20012;-74
2021/12/12 02:09:50;;;;;;;2.30;1.27;;;12.30;99.90;;;;;;5063573;28;20067;-74
2021/12/12 02:12:19;;;;;;;1.92;1.00;;;12.30;99.90;;;;;;5064515;28;20088;-72
2021/12/12 02:14:46;;;;;;;1.50;0.88;;;12.30;99.90;;;;;;5063802;28;20045;-74
2021/12/12 02:17:22;;;;;;;1.30;1.00;;;12.30;99.90;;;;;;5064529;28;20318;-73
2021/12/12 02:20:08;;;;;;;3.25;1.15;;;12.30;99.90;;;;;;5063337;28;20039;-75
2021/12/12 02:36:34;;;;;;;2.42;1.13;;;12.20;99.90;;;;;;5063769;28;20208;-74
2021/12/12 02:39:05;;;;;;;3.05;1.10;;;12.30;99.90;;;;;;5063549;28;20049;-72
2021/12/12 02:41:31;;;;;;;1.42;1.10;;;12.20;99.90;;;;;;5063337;28;20348;-75
2021/12/12 02:44:00;;;;;;;2.50;1.45;;;12.30;99.90;;;;;;5046001;28;20029;-75
2021/12/12 02:46:33;;;;;;;1.77;0.90;;;12.30;99.90;;;;;;5046357;28;20095;-73
2021/12/12 02:49:22;;;;;;;3.60;1.30;;;12.30;99.90;;;;;;5063895;28;20048;-73
2021/12/12 02:51:47;;;;;;;1.77;1.20;;;12.30;99.90;;;;;;5049460;28;20059;-74
2021/12/12 02:54:13;;;;;;;4.43;1.10;;;12.30;99.90;;;;;;5063588;28;20025;-74
2021/12/12 02:56:43;;;;;;;1.52;1.23;;;12.30;99.90;;;;;;5062866;28;20025;-73
2021/12/12 02:59:16;;;;;;;2.40;1.25;;;12.30;99.90;;;;;;5046586;28;20367;-74
2021/12/12 03:01:59;;;;;;;1.30;0.95;;;12.30;99.90;;;;;;5062763;28;20025;-73
2021/12/12 03:04:26;;;;;;;1.70;1.00;;;12.30;99.90;;;;;;5062970;28;20262;-73
2021/12/12 03:06:52;;;;;;;2.28;0.90;;;12.30;99.90;;;;;;5063115;28;20052;-74
2021/12/12 03:09:23;;;;;;;2.38;0.70;;;12.30;99.90;;;;;;5062154;28;20304;-74
2021/12/12 03:11:56;;;;;;;3.20;0.80;;;12.30;99.90;;;;;;5062212;28;20037;-74
2021/12/12 03:14:22;;;;;;;1.15;0.52;;;12.30;99.90;;;;;;5062560;28;20028;-74
2021/12/12 03:16:49;;;;;;;0.77;0.70;;;12.30;99.90;;;;;;5063877;28;20216;-73
2021/12/12 03:19:19;;;;;;;1.55;0.70;;;12.30;99.90;;;;;;5062175;28;20029;-73
2021/12/12 03:21:47;;;;;;;1.48;0.70;;;12.30;99.90;;;;;;5060511;28;20216;-75
2021/12/12 03:24:19;;;;;;;3.20;1.00;;;12.30;99.90;;;;;;5063278;28;20024;-74
2021/12/12 03:26:47;;;;;;;0.70;0.70;;;12.30;99.90;;;;;;5062679;28;20039;-74
2021/12/12 03:29:13;;;;;;;1.40;0.60;;;12.30;99.90;;;;;;5062327;28;20033;-73
2021/12/12 03:31:44;;;;;;;1.10;0.60;;;12.30;99.90;;;;;;5063126;28;20205;-74
2021/12/12 03:34:14;;;;;;;0.50;0.50;;;12.30;99.90;;;;;;5063195;28;20135;-73
2021/12/12 03:36:41;;;;;;;0.95;0.50;;;12.30;99.90;;;;;;5063572;28;20029;-73
2021/12/12 03:39:14;;;;;;;0.40;0.40;;;12.40;99.90;;;;;;5063282;28;20437;-73
2021/12/12 03:41:41;;;;;;;0.60;0.43;;;12.30;99.90;;;;;;5062269;28;20037;-73
2021/12/12 03:44:12;;;;;;;0.50;0.50;;;12.40;99.90;;;;;;5063005;28;20052;-73
2021/12/12 03:46:39;;;;;;;2.17;0.52;;;12.40;99.90;;;;;;5062861;28;20032;-73
2021/12/12 03:49:07;;;;;;;0.57;0.40;;;12.30;99.90;;;;;;5063581;28;20303;-73
2021/12/12 03:51:34;;;;;;;2.22;0.50;;;12.30;99.90;;;;;;5045842;28;20103;-73
2021/12/12 03:54:01;;;;;;;1.17;0.52;;;12.30;99.90;;;;;;5065898;28;20055;-74
2021/12/12 03:56:27;;;;;;;0.70;0.50;;;12.30;99.90;;;;;;5067506;28;20056;-73
2021/12/12 03:58:54;;;;;;;2.15;0.55;;;12.30;99.90;;;;;;5066131;28;20071;-73
2021/12/12 04:01:28;;;;;;;0.57;0.57;;;12.30;99.90;;;;;;5067141;28;20029;-73
2021/12/12 04:03:56;;;;;;;1.40;0.50;;;12.40;99.90;;;;;;5066075;28;20067;-74
2021/12/12 04:06:25;;;;;;;1.90;0.50;;;12.40;99.90;;;;;;5067257;28;20024;-73
2021/12/12 04:08:51;;;;;;;1.90;0.70;;;12.30;99.90;;;;;;5049483;28;20028;-73
2021/12/12 04:11:35;;;;;;;1.85;0.75;;;12.30;99.90;;;;;;5065787;28;20028;-73
2021/12/12 04:14:03;;;;;;;0.50;0.50;;;12.40;99.90;;;;;;5066998;28;20025;-74
2021/12/12 04:16:33;;;;;;;0.95;0.43;;;12.40;99.90;;;;;;5065915;28;20093;-73
2021/12/12 04:18:59;;;;;;;0.50;0.50;;;12.40;99.90;;;;;;5065765;28;20315;-73
2021/12/12 04:21:28;;;;;;;2.47;0.60;;;12.40;99.90;;;;;;5066956;28;20036;-73
2021/12/12 04:23:55;;;;;;;0.60;0.60;;;12.40;99.90;;;;;;5063410;28;20043;-72
2021/12/12 04:26:36;;;;;;;2.05;0.70;;;12.40;99.90;;;;;;5065791;28;20075;-73
2021/12/12 04:29:07;;;;;;;2.00;0.63;;;12.40;99.90;;;;;;5048966;28;20033;-73
2021/12/12 04:31:35;;;;;;;0.85;0.60;;;12.50;99.90;;;;;;5065290;28;20045;-73
2021/12/12 04:34:02;;;;;;;5.88;1.67;;;12.50;99.90;;;;;;5066343;28;20036;-73
2021/12/12 04:36:31;;;;;;;1.35;0.90;;;12.50;99.90;;;;;;5066647;28;20047;-73
2021/12/12 04:39:06;;;;;;;1.77;0.80;;;12.40;99.90;;;;;;5065473;28;20053;-73
2021/12/12 04:41:32;;;;;;;1.73;0.63;;;12.50;99.90;;;;;;5065094;28;20330;-74
2021/12/12 04:43:58;;;;;;;1.48;0.70;;;12.50;99.90;;;;;;5066647;28;20025;-73
2021/12/12 04:46:36;;;;;;;1.08;0.57;;;12.50;99.90;;;;;;5066131;28;20181;-73
2021/12/12 04:51:56;;;;;;;2.60;1.10;;;12.60;99.90;;;;;;5064952;28;20025;-73
2021/12/12 04:54:30;;;;;;;1.80;0.80;;;12.60;99.90;;;;;;5065637;28;20040;-73
2021/12/12 04:57:01;;;;;;;2.45;1.30;;;12.60;99.90;;;;;;5065313;28;20097;-75
2021/12/12 04:59:34;;;;;;;0.82;0.70;;;12.60;99.90;;;;;;5066112;28;20027;-74
2021/12/12 05:02:27;;;;;;;2.78;0.60;;;12.60;99.90;;;;;;5065687;28;20020;-74
2021/12/12 05:05:11;;;;;;;2.28;0.70;;;12.60;99.90;;;;;;5051155;28;20078;-73
2021/12/12 05:07:47;;;;;;;4.05;0.80;;;12.50;99.90;;;;;;5065983;28;20017;-73
2021/12/12 05:10:21;;;;;;;1.67;0.63;;;12.50;99.90;;;;;;5065039;28;20016;-74
2021/12/12 05:12:53;;;;;;;2.75;0.70;;;12.50;99.90;;;;;;5064332;28;20045;-74
2021/12/12 05:15:25;;;;;;;2.53;0.73;;;12.50;99.90;;;;;;5049114;28;20028;-73
2021/12/12 05:17:58;;;;;;;3.25;0.80;;;12.50;99.90;;;;;;5065694;28;20013;-73
2021/12/12 05:20:46;;;;;;;3.28;0.85;;;12.50;99.90;;;;;;5047992;28;20033;-73
2021/12/12 05:23:16;;;;;;;5.85;0.70;;;12.50;99.90;;;;;;5062272;28;20323;-73
2021/12/12 05:25:56;;;;;;;0.80;0.70;;;12.50;99.90;;;;;;5065669;28;20040;-73
2021/12/12 05:28:31;;;;;;;4.53;0.98;;;12.50;99.90;;;;;;5064917;28;20052;-72
2021/12/12 05:30:58;;;;;;;6.78;1.27;;;12.60;99.90;;;;;;5063950;28;20029;-73
2021/12/12 05:33:24;;;;;;;7.45;0.90;;;12.60;99.90;;;;;;5064084;28;20106;-72
2021/12/12 05:35:51;;;;;;;4.22;0.95;;;12.60;99.90;;;;;;5064341;28;20037;-74
2021/12/12 05:38:17;;;;;;;6.75;0.93;;;12.60;99.90;;;;;;5065533;28;20049;-73
2021/12/12 05:40:45;;;;;;;5.82;0.60;;;12.60;99.90;;;;;;5065535;28;20055;-73
2021/12/12 05:43:14;;;;;;;8.35;0.85;;;12.60;99.90;;;;;;5064925;28;20021;-73
2021/12/12 05:45:41;;;;;;;8.27;1.30;;;12.60;99.90;;;;;;5064339;28;20052;-73
2021/12/12 05:48:07;;;;;;;5.57;0.82;;;12.50;99.90;;;;;;5065105;28;20024;-74
2021/12/12 05:50:33;;;;;;;3.55;0.93;;;12.50;99.90;;;;;;5064581;28;20028;-73
2021/12/12 05:52:59;;;;;;;3.78;0.80;;;12.60;99.90;;;;;;5064290;28;20029;-74
2021/12/12 05:55:30;;;;;;;8.38;1.08;;;12.60;99.90;;;;;;5065403;28;20091;-73
2021/12/12 05:57:58;;;;;;;6.70;1.15;;;12.60;99.90;;;;;;5065106;28;20203;-72
2021/12/12 06:00:29;;;;;;;4.25;1.10;;;12.60;99.90;;;;;;5065068;28;20055;-73
2021/12/12 06:02:56;;;;;;;;;;;12.60;99.90;;;;;;5063916;28;20261;-74
2021/12/12 06:05:23;;;;;;;5.70;0.75;;;12.60;99.90;;;;;;5065098;28;20199;-73
2021/12/12 06:07:50;;;;;;;10.05;1.50;;;12.70;99.90;;;;;;5063538;28;20082;-73
2021/12/12 06:10:17;;;;;;;8.13;1.10;;;12.60;99.90;;;;;;5063995;28;20073;-73
2021/12/12 06:12:44;;;;;;;10.35;1.45;;;12.60;99.90;;;;;;5063304;28;20039;-73
2021/12/12 06:15:14;;;;;;;7.95;1.20;;;12.70;99.90;;;;;;5064703;28;20025;-73
2021/12/12 06:17:40;;;;;;;8.55;1.10;;;12.70;99.90;;;;;;5064535;28;20024;-73
2021/12/12 06:20:09;;;;;;;10.10;1.33;;;12.70;99.90;;;;;;5064633;28;20025;-72
2021/12/12 06:22:35;;;;;;;6.20;1.00;;;12.70;99.90;;;;;;5063249;28;20032;-73
2021/12/12 06:25:01;;;;;;;8.63;1.05;;;12.80;99.90;;;;;;5062917;28;20058;-72
2021/12/12 06:27:29;;;;;;;7.30;1.20;;;12.80;99.90;;;;;;5063395;28;20017;-74
2021/12/12 06:29:55;;;;;;;9.55;1.20;;;12.80;99.90;;;;;;5064674;28;20073;-73
2021/12/12 06:32:22;;;;;;;5.78;1.05;;;12.70;99.90;;;;;;5063846;28;20041;-73
2021/12/12 06:34:49;;;;;;;4.80;1.75;;;12.80;99.90;;;;;;5063322;28;20029;-73
2021/12/12 06:37:16;;;;;;;10.00;1.38;;;12.80;99.90;;;;;;5063465;28;20067;-73
2021/12/12 06:39:43;;;;;;;9.70;1.23;;;12.70;99.90;;;;;;5063742;28;20122;-73
2021/12/12 06:42:12;;;;;;;6.35;1.17;;;12.80;99.90;;;;;;5064007;28;20269;-73
2021/12/12 06:44:40;;;;;;;8.20;1.30;;;12.80;99.90;;;;;;5046380;28;20052;-73
2021/12/12 06:47:09;;;;;;;6.32;1.35;;;12.80;99.90;;;;;;5064112;28;20017;-73
2021/12/12 06:49:37;;;;;;;11.32;1.38;;;12.80;99.90;;;;;;5063968;28;20203;-73
2021/12/12 06:52:06;;;;;;;6.50;1.30;;;12.80;99.90;;;;;;5064075;28;20027;-72
2021/12/12 06:54:32;;;;;;;6.72;1.38;;;12.70;99.90;;;;;;5062537;28;20036;-72
2021/12/12 06:57:04;;;;;;;11.25;1.90;;;12.70;99.90;;;;;;5064119;28;20048;-74
2021/12/12 06:59:32;;;;;;;9.43;1.25;;;12.70;99.90;;;;;;5063662;28;20320;-73
2021/12/12 07:01:58;;;;;;;7.88;1.30;;;12.70;99.90;;;;;;5046139;28;20057;-73
2021/12/12 07:04:25;;;;;;;9.50;1.35;;;12.70;99.90;;;;;;5062727;28;20080;-73
2021/12/12 07:06:57;;;;;;;13.38;1.80;;;12.70;99.90;;;;;;5063949;28;20346;-73
2021/12/12 07:09:24;;;;;;;8.50;1.48;;;12.70;99.90;;;;;;5063012;28;20024;-73
2021/12/12 07:11:50;;;;;;;15.30;1.70;;;12.80;99.90;;;;;;5062366;28;20059;-74
2021/12/12 07:14:17;;;;;;;13.00;1.92;;;12.70;99.90;;;;;;5063514;28;20296;-74
2021/12/12 07:16:43;;;;;;;13.57;1.70;;;12.70;99.90;;;;;;5062616;28;20031;-74
2021/12/12 07:19:12;;;;;;;18.05;2.30;;;12.70;99.90;;;;;;5062512;28;20051;-74
2021/12/12 07:21:38;;;;;;;14.95;1.85;;;12.70;99.90;;;;;;5063635;28;20035;-73
2021/12/12 07:24:05;;;;;;;9.15;1.60;;;12.80;99.90;;;;;;5062718;28;20029;-73
2021/12/12 07:26:31;;;;;;;11.50;1.38;;;12.80;99.90;;;;;;5043785;28;20296;-74
2021/12/12 07:28:58;;;;;;;15.60;1.90;;;12.80;99.90;;;;;;5062257;28;20046;-73
2021/12/12 07:31:29;;;;;;;14.57;1.83;;;12.80;99.90;;;;;;5063564;28;20016;-73
2021/12/12 07:33:58;;;;;;;16.77;2.20;;;12.80;99.90;;;;;;5061817;28;20025;-72
2021/12/12 07:36:26;;;;;;;19.27;1.90;;;12.80;99.90;;;;;;5046224;28;20254;-74
2021/12/12 07:38:56;;;;;;;16.50;1.95;;;12.80;99.90;;;;;;5062740;28;20053;-73
2021/12/12 07:41:25;;;;;;;17.30;1.77;;;12.80;99.90;;;;;;5063452;28;20025;-73
2021/12/12 07:43:51;;;;;;;12.32;2.00;;;12.80;99.90;;;;;;5061845;28;20029;-74
2021/12/12 07:46:19;;;;;;;15.18;2.33;;;12.70;99.90;;;;;;5063177;28;20040;-72
2021/12/12 07:48:47;;;;;;;14.15;1.85;;;12.80;99.90;;;;;;5063445;28;20029;-74
2021/12/12 07:51:13;;;;;;;19.83;2.30;;;12.80;99.90;;;;;;5062573;28;20021;-73
2021/12/12 07:53:39;;;;;;;14.23;1.88;;;12.70;99.90;;;;;;5062351;28;20033;-72
2021/12/12 07:56:05;;;;;;;11.77;2.60;;;12.70;99.90;;;;;;5062318;28;20041;-73
2021/12/12 07:58:32;;;;;;;12.35;1.73;;;12.80;99.90;;;;;;5063469;28;20250;-73
2021/12/12 08:01:00;;;;;;;16.70;2.40;;;12.70;99.90;;;;;;5063018;28;20047;-72
2021/12/12 08:03:31;;;;;;;8.82;1.38;;;12.70;99.90;;;;;;5062062;28;20075;-73
2021/12/12 08:06:00;;;;;;;14.77;1.77;;;12.80;99.90;;;;;;5062038;28;20307;-72
2021/12/12 08:08:28;;;;;;;14.50;2.00;;;12.80;99.90;;;;;;5063117;28;20088;-73
2021/12/12 08:10:55;;;;;;;9.90;1.58;;;12.70;99.90;;;;;;5062213;28;20032;-75
2021/12/12 08:13:21;;;;;;;16.58;1.88;;;12.80;99.90;;;;;;5062890;28;20032;-72
2021/12/12 08:15:48;;;;;;;10.85;1.55;;;12.70;99.90;;;;;;5061834;28;20020;-73
2021/12/12 08:18:18;;;;;;;7.60;2.00;;;12.70;99.90;;;;;;5063170;28;20032;-74
2021/12/12 08:20:47;;;;;;;11.02;1.92;;;12.70;99.90;;;;;;5061392;28;20307;-72
2021/12/12 08:23:14;;;;;;;13.73;2.13;;;12.70;99.90;;;;;;5059884;28;20220;-73
2021/12/12 08:25:41;;;;;;;16.60;1.55;;;12.70;99.90;;;;;;5040976;28;20320;-72
2021/12/12 08:28:09;;;;;;;15.20;2.38;;;12.70;99.90;;;;;;5042194;28;20023;-74
2021/12/12 08:30:37;;;;;;;14.57;2.08;;;12.70;99.90;;;;;;5041795;28;20048;-72
2021/12/12 08:33:05;;;;;;;13.40;1.95;;;12.70;99.90;;;;;;5042645;28;20288;-73
2021/12/12 08:35:33;;;;;;;10.10;1.73;;;12.70;99.90;;;;;;5041533;28;20025;-74
2021/12/12 08:38:00;;;;;;;12.70;1.70;;;12.70;99.90;;;;;;5044262;28;20108;-72
2021/12/12 08:40:29;;;;;;;7.97;1.60;;;12.70;99.90;;;;;;5051553;28;20084;-72
2021/12/12 08:42:56;;;;;;;10.27;2.05;;;12.70;99.90;;;;;;5065633;28;20051;-73
2021/12/12 08:45:25;;;;;;;11.25;1.65;;;12.70;99.90;;;;;;5066267;28;20059;-74
2021/12/12 08:47:54;;;;;;;9.85;1.90;;;12.70;99.90;;;;;;5066417;28;20197;-73
2021/12/12 08:50:24;;;;;;;12.75;1.80;;;12.70;99.90;;;;;;5065103;28;20610;-73
2021/12/12 08:52:51;;;;;;;13.60;1.85;;;12.70;99.90;;;;;;5065178;28;20288;-74
2021/12/12 08:55:21;;;;;;;9.57;1.90;;;12.70;99.90;;;;;;5065552;28;20354;-72
2021/12/12 08:58:14;;;;;;;10.82;1.60;;;12.70;99.90;;;;;;5065074;28;20080;-73
2021/12/12 09:00:40;;;;;;;7.75;1.73;;;12.70;99.90;;;;;;5065048;28;20063;-73
2021/12/12 09:03:08;;;;;;;12.57;1.80;;;12.70;99.90;;;;;;5064972;28;20033;-74
2021/12/12 09:05:36;;;;;;;11.23;2.25;;;12.70;99.90;;;;;;5064711;28;20031;-73
2021/12/12 09:08:08;;;;;;;8.35;1.50;;;12.80;99.90;;;;;;5066186;28;20013;-73
2021/12/12 09:10:40;;;;;;;11.85;2.10;;;12.80;99.90;;;;;;5065894;28;20045;-74
2021/12/12 09:13:13;;;;;;;11.57;1.75;;;12.80;99.90;;;;;;5065808;28;20028;-74
2021/12/12 09:15:46;;;;;;;8.57;1.50;;;12.80;99.90;;;;;;5065561;28;20067;-73
2021/12/12 09:18:25;;;;;;;10.35;1.48;;;12.80;99.90;;;;;;5048648;28;20271;-73
2021/12/12 09:21:07;;;;;;;10.50;1.40;;;12.90;99.90;;;;;;5064663;28;20044;-73
2021/12/12 09:23:40;;;;;;;6.47;1.30;;;12.90;99.90;;;;;;5065163;28;20094;-74
2021/12/12 09:26:11;;;;;;;8.70;1.67;;;13.00;99.90;;;;;;5065628;28;20021;-74
2021/12/12 09:28:49;;;;;;;7.80;1.70;;;13.00;99.90;;;;;;5063448;28;20020;-73
2021/12/12 09:31:24;;;;;;;8.00;1.23;;;13.10;99.90;;;;;;5064437;28;20033;-73
2021/12/12 09:33:58;;;;;;;5.20;1.45;;;13.10;99.90;;;;;;5064077;28;20342;-72
2021/12/12 09:36:44;;;;;;;6.93;1.20;;;13.00;99.90;;;;;;5039716;28;20063;-73
2021/12/12 09:39:24;;;;;;;3.15;0.90;;;13.10;99.90;;;;;;5065200;28;20080;-73
2021/12/12 09:42:29;;;;;;;7.32;1.40;;;13.10;99.90;;;;;;5064108;28;20029;-73
2021/12/12 09:45:31;;;;;;;3.90;1.15;;;13.20;99.90;;;;;;5067208;28;20057;-72
2021/12/12 09:52:02;;;;;;;3.90;1.10;;;13.20;99.90;;;;;;5055761;28;20051;-73
2021/12/12 09:54:54;;;;;;;7.25;1.15;;;13.20;99.90;;;;;;5066777;28;20029;-74
2021/12/12 09:57:43;;;;;;;8.63;0.95;;;13.20;99.90;;;;;;5064308;28;20066;-74
2021/12/12 10:00:36;;;;;;;10.68;1.25;;;13.30;99.90;;;;;;5064005;28;20183;-74
2021/12/12 10:03:41;;;;;;;5.78;0.88;;;13.30;99.90;;;;;;5064062;28;20045;-73
2021/12/12 10:06:20;;;;;;;6.00;0.88;;;13.40;99.90;;;;;;5066825;28;20028;-74
2021/12/12 10:09:03;;;;;;;5.72;1.10;;;13.40;99.90;;;;;;5064943;28;20021;-74
2021/12/12 10:12:08;;;;;;;9.60;1.20;;;13.40;99.90;;;;;;5065155;28;20020;-73
2021/12/12 10:15:00;;;;;;;4.57;0.80;;;13.40;99.90;;;;;;5063897;28;20048;-73
2021/12/12 10:17:40;;;;;;;3.83;1.23;;;13.40;99.90;;;;;;5063688;28;20210;-73
2021/12/12 10:20:12;;;;;;;3.92;0.77;;;13.50;99.90;;;;;;5064801;28;20028;-74
2021/12/12 10:23:18;;;;;;;4.55;0.70;;;13.50;99.90;;;;;;5063362;28;20038;-74
2021/12/12 10:26:05;;;;;;;6.45;1.02;;;13.50;99.90;;;;;;5063371;28;20350;-73
2021/12/12 10:28:49;;;;;;;4.45;1.08;;;13.50;99.90;;;;;;5062253;28;20304;-74
2021/12/12 10:31:32;;;;;;;6.20;1.05;;;13.50;99.90;;;;;;5063589;28;20040;-73
2021/12/12 10:34:05;;;;;;;2.65;0.85;;;13.40;99.90;;;;;;5046340;28;20051;-74
2021/12/12 10:36:57;;;;;;;1.20;0.50;;;13.40;99.90;;;;;;5062334;28;20028;-74
2021/12/12 10:39:28;;;;;;;;;;;13.40;99.90;;;;;;5050528;28;20374;-74
2021/12/12 10:42:02;;;;;;;3.17;0.50;;;13.50;99.90;;;;;;5059588;28;19908;-74
2021/12/12 10:44:34;;;;;;;4.53;0.57;;;13.50;99.90;;;;;;5043263;28;20224;-74
2021/12/12 10:47:28;;;;;;;1.40;0.50;;;13.50;99.90;;;;;;5042819;28;20096;-74
2021/12/12 10:50:15;;;;;;;2.33;0.50;;;13.40;99.90;;;;;;5030728;28;20022;-73
2021/12/12 10:53:06;;;;;;;2.95;0.57;;;13.50;99.90;;;;;;5042987;28;20021;-74
2021/12/12 10:55:58;;;;;;;1.55;0.35;;;13.60;99.90;;;;;;5043447;28;20033;-74
2021/12/12 10:58:43;;;;;;;3.67;0.60;;;13.60;99.90;;;;;;5042936;28;20017;-73
2021/12/12 11:01:16;;;;;;;2.97;0.70;;;13.50;99.90;;;;;;5043211;28;20021;-73
2021/12/12 11:03:51;;;;;;;2.78;0.50;;;13.40;99.90;;;;;;5027009;28;20067;-73
2021/12/12 11:06:29;;;;;;;3.40;0.60;;;13.40;99.90;;;;;;5043180;28;20041;-74
2021/12/12 11:09:03;;;;;;;3.70;0.80;;;13.40;99.90;;;;;;5042553;28;20028;-73
2021/12/12 11:11:35;;;;;;;3.03;0.80;;;13.40;99.90;;;;;;5049318;28;20043;-74
2021/12/12 11:14:06;;;;;;;;;;;13.50;99.90;;;;;;5063904;28;20040;-74
2021/12/12 11:16:54;;;;;;;6.05;1.00;;;13.50;99.90;;;;;;5064042;28;19901;-72
2021/12/12 11:19:30;;;;;;;4.80;0.88;;;13.60;99.90;;;;;;5045919;28;20032;-74
2021/12/12 11:22:07;;;;;;;3.72;0.98;;;13.70;99.90;;;;;;5062250;28;20227;-73
2021/12/12 11:24:36;;;;;;;3.75;1.00;;;13.80;99.90;;;;;;5063608;28;20376;-73
2021/12/12 11:27:14;;;;;;;4.03;0.90;;;14.00;99.90;;;;;;5061914;28;20029;-74
2021/12/12 11:29:45;;;;;;;4.40;1.15;;;14.10;99.90;;;;;;5060672;28;20044;-73
2021/12/12 11:32:18;;;;;;;5.13;0.93;;;14.10;99.90;;;;;;5062263;28;20037;-74
2021/12/12 11:34:47;;;;;;;6.95;1.25;;;14.20;99.90;;;;;;5062227;28;20033;-74
2021/12/12 11:37:53;;;;;;;4.13;1.00;;;14.30;99.90;;;;;;5062344;28;20037;-73
2021/12/12 11:40:31;;;;;;;6.13;1.13;;;14.30;99.90;;;;;;5062447;28;20025;-74
2021/12/12 11:43:20;;;;;;;1.00;0.60;;;14.40;99.90;;;;;;5063178;28;20029;-74
2021/12/12 11:45:54;;;;;;;3.95;0.68;;;14.40;99.90;;;;;;5062285;28;20013;-73
2021/12/12 11:48:59;;;;;;;2.25;0.70;;;14.50;99.90;;;;;;5061942;28;20021;-74
2021/12/12 11:51:50;;;;;;;4.07;0.85;;;14.40;99.90;;;;;;5065541;28;20024;-74
2021/12/12 11:54:44;;;;;;;0.82;0.40;;;14.30;99.90;;;;;;5047788;28;20025;-74
2021/12/12 11:57:21;;;;;;;3.85;0.70;;;14.20;99.90;;;;;;5062679;28;20024;-73
2021/12/12 12:00:14;;;;;;;1.33;0.40;;;14.20;99.90;;;;;;5063076;28;20025;-74
2021/12/12 12:03:07;;;;;;;2.30;0.50;;;14.10;99.90;;;;;;5062105;28;20088;-74
2021/12/12 12:05:55;;;;;;;2.08;0.65;;;14.20;99.90;;;;;;5048385;28;20048;-75
2021/12/12 12:08:30;;;;;;;2.58;0.98;;;14.20;99.90;;;;;;5062185;28;20025;-73
2021/12/12 12:11:30;;;;;;;2.38;0.55;;;14.20;99.90;;;;;;5061637;28;20253;-74
2021/12/12 12:14:07;;;;;;;4.13;0.95;;;14.20;99.90;;;;;;5064486;28;20029;-74
2021/12/12 12:16:55;;;;;;;0.80;0.52;;;14.20;99.90;;;;;;5067034;28;20028;-74
2021/12/12 12:19:35;;;;;;;1.75;0.40;;;14.20;99.90;;;;;;5065922;28;20227;-77
2021/12/12 12:22:43;;;;;;;2.75;0.50;;;14.30;99.90;;;;;;5065938;28;20066;-75
2021/12/12 12:26:50;;;;;;;1.88;0.50;;;14.20;99.90;;;;;;5065714;28;20028;-73
2021/12/12 12:28:43;;;;;;;1.92;0.70;;;14.20;99.90;;;;;;5065508;28;20032;-73
2021/12/12 12:31:49;;;;;;;2.65;0.60;;;14.20;99.90;;;;;;5065470;28;20017;-73
2021/12/12 12:34:54;;;;;;;2.28;0.50;;;14.20;99.90;;;;;;5065635;28;20063;-73
2021/12/12 12:37:59;;;;;;;3.65;0.50;;;14.20;99.90;;;;;;5066060;28;20020;-73
2021/12/12 12:41:05;;;;;;;5.20;0.75;;;14.10;99.90;;;;;;5051405;28;20223;-75
2021/12/12 12:44:10;;;;;;;3.60;0.40;;;14.20;99.90;;;;;;5068222;28;20070;-74
2021/12/12 12:47:16;;;;;;;1.65;0.68;;;14.20;99.90;;;;;;5068548;28;20040;-75
2021/12/12 12:50:21;;;;;;;1.50;0.50;;;14.20;99.90;;;;;;5068120;28;20033;-73
2021/12/12 12:53:27;;;;;;;3.90;0.47;;;14.20;99.90;;;;;;5068053;28;20094;-75
2021/12/12 12:56:26;;;;;;;5.35;0.43;;;14.10;99.90;;;;;;5068417;28;20025;-74
2021/12/12 12:59:27;;;;;;;1.23;0.50;;;14.10;99.90;;;;;;5050649;28;20041;-73
2021/12/12 13:02:16;;;;;;;4.90;0.50;;;14.10;99.90;;;;;;5065516;28;20200;-73
2021/12/12 13:05:22;;;;;;;3.40;0.52;;;14.20;99.90;;;;;;5064900;28;20028;-75
2021/12/12 13:08:27;;;;;;;1.58;0.50;;;14.10;99.90;;;;;;5054024;28;20040;-74
2021/12/12 13:10:54;;;;;;;5.38;0.60;;;14.10;99.90;;;;;;5067661;28;20063;-73
2021/12/12 13:13:28;;;;;;;3.60;0.63;;;14.10;99.90;;;;;;5064452;28;20347;-74
2021/12/12 13:16:02;;;;;;;2.20;0.55;;;14.00;99.90;;;;;;5065152;28;20021;-74
2021/12/12 13:18:53;;;;;;;3.75;0.65;;;14.00;99.90;;;;;;5066218;28;20025;-75
2021/12/12 13:21:34;;;;;;;2.75;0.52;;;13.90;99.90;;;;;;5065118;28;20035;-73
2021/12/12 13:24:16;;;;;;;3.53;1.13;;;13.90;99.90;;;;;;5064630;28;20048;-74
2021/12/12 13:27:21;;;;;;;1.95;0.75;;;13.90;99.90;;;;;;5048189;28;20028;-74
2021/12/12 13:30:15;;;;;;;2.55;0.50;;;14.00;99.90;;;;;;5051615;28;20058;-74
2021/12/12 13:33:04;;;;;;;1.33;0.57;;;14.00;99.90;;;;;;5052010;28;20025;-74
2021/12/12 13:35:54;;;;;;;4.93;0.85;;;14.00;99.90;;;;;;5064140;28;20080;-75
2021/12/12 13:38:25;;;;;;;3.17;0.70;;;14.10;99.90;;;;;;5064635;28;20067;-74
2021/12/12 13:41:14;;;;;;;6.95;1.27;;;14.10;99.90;;;;;;5064202;28;20013;-73
2021/12/12 13:44:08;;;;;;;6.78;0.70;;;14.20;99.90;;;;;;5065237;28;20317;-73
2021/12/12 13:47:09;;;;;;;4.85;1.23;;;14.20;99.90;;;;;;5065068;28;20025;-75